Time;durP1;ratioP1;P1;durP2;ratioP2;P2;SDS_P1;SDS_P2;PMS_P1;PMS_P2;Temp;Humidity;BMP_temperature;BMP_pressure;BME280_temperature;BME280_humidity;BME280_pressure;Samples;Min_cycle;Max_cycle;Signal;HPM_P1;HPM_P2
2024/03/30 00:00:08;;;;;;;4.43;2.00;;;;;;;14.07;100.00;101351.84;2088103;28;20217;-69
2024/03/30 00:01:08;;;;;;;5.83;1.60;;;;;;;14.07;100.00;101351.84;2086211;28;20654;-69
2024/03/30 00:02:09;;;;;;;3.43;2.13;;;;;;;13.76;100.00;101304.13;2086665;28;20820;-69
2024/03/30 00:03:09;;;;;;;4.27;1.73;;;;;;;14.01;100.00;101348.84;2087811;28;20199;-69
2024/03/30 00:04:10;;;;;;;5.37;1.70;;;;;;;13.98;100.00;101352.50;2091639;28;20234;-69
2024/03/30 00:05:10;;;;;;;3.30;1.40;;;;;;;13.95;100.00;101347.00;2087118;28;20260;-69
2024/03/30 00:06:11;;;;;;;6.00;1.90;;;;;;;13.92;100.00;101353.44;2086879;28;20191;-69
2024/03/30 00:07:11;;;;;;;3.20;1.67;;;;;;;13.83;100.00;101347.75;2085855;28;20210;-69
2024/03/30 00:08:13;;;;;;;7.43;2.13;;;;;;;13.87;100.00;101351.19;2087903;28;20694;-69
2024/03/30 00:09:14;;;;;;;3.37;1.63;;;;;;;13.87;100.00;101352.00;2086710;28;20196;-69
2024/03/30 00:10:14;;;;;;;2.80;1.40;;;;;;;13.85;100.00;101362.78;2087270;28;20442;-69
2024/03/30 00:11:15;;;;;;;3.23;1.70;;;;;;;13.81;100.00;101358.50;2086024;28;20204;-69
2024/03/30 00:12:16;;;;;;;3.30;1.60;;;;;;;13.75;100.00;101355.50;2086167;28;20305;-69
2024/03/30 00:13:16;;;;;;;3.37;1.60;;;;;;;12.99;100.00;101250.38;2085788;28;20200;-69
2024/03/30 00:14:17;;;;;;;2.87;1.57;;;;;;;13.71;100.00;101360.38;2087171;28;20460;-69
2024/03/30 00:15:17;;;;;;;4.43;1.63;;;;;;;12.89;100.00;101228.34;2086556;28;20188;-69
2024/03/30 00:16:18;;;;;;;4.90;1.60;;;;;;;13.66;100.00;101358.09;2087604;28;20185;-69
2024/03/30 00:17:18;;;;;;;2.77;1.70;;;;;;;13.65;100.00;101358.53;2086227;28;20192;-69
2024/03/30 00:18:19;;;;;;;5.47;1.90;;;;;;;12.77;100.00;101229.81;2087294;28;20184;-69
2024/03/30 00:19:19;;;;;;;3.50;1.60;;;;;;;13.61;100.00;101364.19;2087047;28;20611;-69
2024/03/30 00:20:22;;;;;;;4.50;1.80;;;;;;;13.26;100.00;101306.56;2086949;28;20196;-69
2024/03/30 00:21:22;;;;;;;5.00;1.33;;;;;;;13.20;100.00;101299.97;2085822;28;20200;-69
2024/03/30 00:22:23;;;;;;;3.50;1.50;;;;;;;13.53;100.00;101365.56;2086120;28;20426;-69
2024/03/30 00:23:23;;;;;;;3.37;1.77;;;;;;;13.50;100.00;101371.22;2086938;28;20589;-69
2024/03/30 00:24:25;;;;;;;3.10;1.20;;;;;;;13.49;100.00;101373.25;2089402;28;20230;-69
2024/03/30 00:25:25;;;;;;;2.80;1.60;;;;;;;13.30;100.00;101343.47;2087378;28;20638;-69
2024/03/30 00:26:26;;;;;;;6.70;1.93;;;;;;;13.46;100.00;101376.88;2086104;28;20882;-69
2024/03/30 00:27:26;;;;;;;2.67;1.40;;;;;;;13.11;100.00;101316.47;2086086;28;20670;-69
2024/03/30 00:28:27;;;;;;;2.90;1.40;;;;;;;13.04;100.00;101315.84;2087182;28;20252;-69
2024/03/30 00:29:28;;;;;;;3.30;1.13;;;;;;;13.39;100.00;101371.50;2086621;28;20620;-69
2024/03/30 00:30:36;;;;;;;3.33;1.50;;;;;;;13.40;100.00;101366.69;2086947;28;20845;-69
2024/03/30 00:31:36;;;;;;;3.43;1.40;;;;;;;13.39;100.00;101373.47;2087054;28;26679;-69
2024/03/30 00:32:37;;;;;;;5.10;1.30;;;;;;;12.75;100.00;101275.97;2086966;28;20425;-69
2024/03/30 00:33:38;;;;;;;4.27;1.30;;;;;;;13.35;100.00;101372.78;2086163;28;20312;-69
2024/03/30 00:34:38;;;;;;;1.40;0.90;;;;;;;12.64;100.00;101258.72;2087366;28;20189;-69
2024/03/30 00:35:39;;;;;;;4.00;1.50;;;;;;;12.75;100.00;101287.88;2086852;28;20225;-69
2024/03/30 00:36:39;;;;;;;4.93;1.63;;;;;;;13.33;100.00;101370.41;2086462;28;20192;-69
2024/03/30 00:37:40;;;;;;;2.73;1.20;;;;;;;13.04;100.00;101338.13;2085968;28;20194;-69
2024/03/30 00:38:45;;;;;;;3.17;1.27;;;;;;;13.29;100.00;101378.09;2087030;28;20187;-69
2024/03/30 00:39:45;;;;;;;3.07;1.07;;;;;;;13.26;100.00;101378.94;2086280;28;20186;-70
2024/03/30 00:40:46;;;;;;;8.27;1.20;;;;;;;12.59;100.00;101271.13;2086683;28;20493;-69
2024/03/30 00:41:47;;;;;;;2.10;1.10;;;;;;;13.10;100.00;101362.22;2092927;28;20197;-69
2024/03/30 00:42:47;;;;;;;1.57;0.80;;;;;;;13.22;100.00;101377.47;2085689;28;20194;-69
2024/03/30 00:43:48;;;;;;;1.70;0.73;;;;;;;13.19;100.00;101373.56;2087516;28;20622;-69
2024/03/30 00:44:48;;;;;;;3.40;0.97;;;;;;;12.90;100.00;101328.06;2086974;28;20185;-69
2024/03/30 00:45:49;;;;;;;3.57;1.20;;;;;;;13.10;100.00;101364.22;2086351;28;20219;-69
2024/03/30 00:46:49;;;;;;;3.90;1.80;;;;;;;13.19;100.00;101381.91;2085430;28;20635;-69
2024/03/30 00:47:50;;;;;;;4.23;1.63;;;;;;;13.22;100.00;101378.25;2086899;28;20194;-69
2024/03/30 00:48:51;;;;;;;6.10;1.50;;;;;;;13.20;100.00;101374.31;2086863;28;20186;-69
2024/03/30 00:49:51;;;;;;;3.13;1.60;;;;;;;13.19;100.00;101369.97;2092507;28;20181;-69
2024/03/30 00:50:53;;;;;;;2.60;1.50;;;;;;;13.19;100.00;101381.91;2085897;28;20185;-69
2024/03/30 00:51:53;;;;;;;3.23;0.93;;;;;;;13.03;100.00;101359.59;2086197;28;20200;-69
2024/03/30 00:52:54;;;;;;;2.63;0.87;;;;;;;13.15;100.00;101375.63;2086283;28;20435;-69
2024/03/30 00:53:54;;;;;;;5.23;1.20;;;;;;;12.90;100.00;101333.63;2087058;28;20273;-69
2024/03/30 00:54:55;;;;;;;2.20;1.27;;;;;;;13.10;100.00;101361.41;2086788;28;20193;-69
2024/03/30 00:55:59;;;;;;;2.77;1.13;;;;;;;13.11;100.00;101351.88;2085591;28;20188;-69
2024/03/30 00:57:00;;;;;;;1.10;0.77;;;;;;;13.16;100.00;101371.63;2085999;28;20198;-69
2024/03/30 00:58:00;;;;;;;4.30;1.07;;;;;;;12.99;100.00;101356.13;2086797;28;20423;-69
2024/03/30 00:59:01;;;;;;;1.53;0.70;;;;;;;13.14;100.00;101368.50;2086556;28;20187;-69
2024/03/30 01:00:02;;;;;;;4.10;1.27;;;;;;;13.15;100.00;101361.72;2088015;28;20273;-69
2024/03/30 01:01:03;;;;;;;2.33;1.17;;;;;;;13.15;100.00;101372.03;2086104;28;20239;-69
2024/03/30 01:02:04;;;;;;;8.30;1.13;;;;;;;13.15;100.00;101360.91;2085689;28;20198;-69
2024/03/30 01:03:04;;;;;;;2.00;0.90;;;;;;;13.07;100.00;101367.88;2085367;28;20443;-69
2024/03/30 01:04:05;;;;;;;2.37;1.07;;;;;;;12.91;100.00;101348.31;2087160;28;20192;-69
2024/03/30 01:05:06;;;;;;;2.97;1.07;;;;;;;12.69;100.00;101306.28;2088670;28;20197;-69
2024/03/30 01:06:07;;;;;;;2.67;1.07;;;;;;;13.06;100.00;101364.28;2091542;28;20289;-69
2024/03/30 01:07:07;;;;;;;4.63;1.23;;;;;;;12.50;100.00;101270.16;2081780;28;20490;-69
2024/03/30 01:08:08;;;;;;;1.90;1.07;;;;;;;12.87;100.00;101333.72;2086213;28;20260;-69
2024/03/30 01:09:09;;;;;;;4.27;1.20;;;;;;;13.15;100.00;101366.47;2087189;28;20658;-69
2024/03/30 01:10:12;;;;;;;3.47;0.93;;;;;;;13.00;100.00;101346.53;2093191;28;20743;-69
2024/03/30 01:11:13;;;;;;;1.00;0.60;;;;;;;13.13;100.00;101358.59;2092507;28;20602;-69
2024/03/30 01:12:14;;;;;;;2.07;0.93;;;;;;;13.14;100.00;101359.34;2089030;28;20471;-69
2024/03/30 01:13:15;;;;;;;4.80;1.00;;;;;;;13.14;100.00;101362.13;2085761;28;20190;-69
2024/03/30 01:14:18;;;;;;;2.10;0.90;;;;;;;13.16;100.00;101363.28;2086728;28;20657;-69
2024/03/30 01:15:19;;;;;;;3.90;2.30;;;;;;;13.12;100.00;101354.22;2086723;28;20197;-69
2024/03/30 01:16:19;;;;;;;4.27;1.73;;;;;;;13.11;100.00;101351.88;2086648;28;20554;-69
2024/03/30 01:17:20;;;;;;;3.80;1.90;;;;;;;12.95;100.00;101333.13;2085489;28;20471;-69
2024/03/30 01:18:21;;;;;;;2.67;1.40;;;;;;;13.18;100.00;101349.72;2087071;28;20192;-69
2024/03/30 01:19:22;;;;;;;5.07;1.73;;;;;;;12.50;100.00;101257.03;2086604;28;20242;-69
2024/03/30 01:20:23;;;;;;;2.03;1.10;;;;;;;13.23;100.00;101351.97;2086712;28;20626;-69
2024/03/30 01:21:24;;;;;;;3.60;1.40;;;;;;;13.24;100.00;101353.56;2086628;28;20681;-69
2024/03/30 01:22:25;;;;;;;2.17;1.20;;;;;;;13.24;100.00;101353.56;2087482;28;20815;-69
2024/03/30 01:23:26;;;;;;;4.70;1.00;;;;;;;13.28;100.00;101347.91;2087767;28;20564;-69
2024/03/30 01:24:26;;;;;;;9.27;1.33;;;;;;;13.30;100.00;101356.59;2088061;28;20562;-69
2024/03/30 01:25:27;;;;;;;1.97;0.90;;;;;;;13.19;100.00;101342.13;2094574;28;20209;-69
2024/03/30 01:26:28;;;;;;;2.70;1.00;;;;;;;13.21;100.00;101356.44;2088152;28;20242;-69
2024/03/30 01:27:29;;;;;;;6.33;1.30;;;;;;;13.19;100.00;101350.50;2090218;28;20193;-69
2024/03/30 01:28:30;;;;;;;2.53;1.13;;;;;;;13.20;100.00;101352.06;2094488;28;20675;-69
2024/03/30 01:29:31;;;;;;;2.63;1.07;;;;;;;12.74;100.00;101300.22;2090631;28;20444;-69
2024/03/30 01:30:32;;;;;;;2.57;1.20;;;;;;;13.20;100.00;101354.84;2088440;28;20312;-69
2024/03/30 01:31:33;;;;;;;4.70;1.27;;;;;;;13.25;100.00;101355.13;2087051;28;20507;-69
2024/03/30 01:32:34;;;;;;;3.27;1.17;;;;;;;13.23;100.00;101357.53;2087568;28;20324;-69
2024/03/30 01:33:34;;;;;;;1.83;1.00;;;;;;;13.28;100.00;101362.59;2088173;28;20226;-69
2024/03/30 01:34:35;;;;;;;4.10;1.40;;;;;;;13.14;100.00;101335.09;2095335;28;20211;-69
2024/03/30 01:35:36;;;;;;;2.73;0.87;;;;;;;13.30;100.00;101364.94;2090922;28;21001;-69
2024/03/30 01:36:36;;;;;;;5.10;1.20;;;;;;;13.29;100.00;101366.97;2096257;28;20188;-69
2024/03/30 01:37:37;;;;;;;2.50;1.17;;;;;;;13.27;100.00;101372.16;2087737;28;20193;-69
2024/03/30 01:38:37;;;;;;;5.20;2.00;;;;;;;13.10;100.00;101347.50;2088385;28;20284;-69
2024/03/30 01:39:38;;;;;;;6.00;1.43;;;;;;;13.21;100.00;101368.31;2088344;28;20185;-69
2024/03/30 01:40:39;;;;;;;4.63;1.53;;;;;;;13.21;100.00;101362.75;2088119;28;20355;-69
2024/03/30 01:41:39;;;;;;;4.40;1.30;;;;;;;13.18;100.00;101371.19;2086780;28;20576;-69
2024/03/30 01:42:40;;;;;;;3.30;1.40;;;;;;;13.14;100.00;101370.47;2087290;28;20624;-69
2024/03/30 01:43:41;;;;;;;3.90;1.47;;;;;;;13.09;100.00;101376.56;2088881;28;20739;-69
2024/03/30 01:44:41;;;;;;;5.53;1.00;;;;;;;12.93;100.00;101349.47;2088297;28;20650;-69
2024/03/30 01:45:44;;;;;;;1.13;0.70;;;;;;;13.06;100.00;101367.06;2093162;28;20196;-69
2024/03/30 01:46:45;;;;;;;3.33;0.73;;;;;;;13.05;100.00;101371.06;2090328;28;20565;-69
2024/03/30 01:47:45;;;;;;;3.03;1.13;;;;;;;13.01;100.00;101375.16;2090523;28;20506;-69
2024/03/30 01:48:47;;;;;;;1.57;0.73;;;;;;;13.05;100.00;101373.06;2088611;28;20206;-69
2024/03/30 01:49:49;;;;;;;2.30;0.93;;;;;;;13.03;100.00;101375.50;2088096;28;20191;-69
2024/03/30 01:50:52;;;;;;;2.27;0.93;;;;;;;12.76;100.00;101339.47;2092771;28;20438;-70
2024/03/30 01:51:54;;;;;;;4.50;1.07;;;;;;;12.86;100.00;101337.72;2086495;28;20459;-69
2024/03/30 01:52:55;;;;;;;0.87;0.60;;;;;;;12.96;100.00;101356.97;2088454;28;20431;-69
2024/03/30 01:53:57;;;;;;;1.87;0.97;;;;;;;12.97;100.00;101354.97;2088079;28;20446;-69
2024/03/30 01:54:58;;;;;;;2.43;0.93;;;;;;;13.07;100.00;101376.97;2090011;28;20800;-69
2024/03/30 01:55:58;;;;;;;7.00;1.13;;;;;;;13.10;100.00;101380.91;2090481;28;20445;-69
2024/03/30 01:57:00;;;;;;;2.30;0.80;;;;;;;12.53;100.00;101283.97;2086315;28;20205;-69
2024/03/30 01:58:02;;;;;;;2.10;0.70;;;;;;;13.10;100.00;101372.56;2088004;28;20201;-69
2024/03/30 01:59:03;;;;;;;2.30;0.87;;;;;;;13.08;100.00;101378.56;2087627;28;21003;-69
2024/03/30 02:00:07;;;;;;;3.70;1.00;;;;;;;13.04;100.00;101375.09;2088089;28;20513;-69
2024/03/30 02:01:07;;;;;;;1.67;1.00;;;;;;;12.98;100.00;101362.91;2087280;28;20195;-69
2024/03/30 02:02:13;;;;;;;1.77;0.70;;;;;;;12.89;100.00;101367.44;2088525;28;20518;-69
2024/03/30 02:03:14;;;;;;;4.87;1.07;;;;;;;12.39;100.00;101308.50;2090513;28;20684;-69
2024/03/30 02:04:16;;;;;;;1.83;0.80;;;;;;;12.92;100.00;101388.84;2088701;28;21001;-69
2024/03/30 02:05:16;;;;;;;2.60;1.10;;;;;;;12.36;100.00;101276.81;2087984;28;20486;-69
2024/03/30 02:06:18;;;;;;;2.20;0.83;;;;;;;12.98;100.00;101371.25;2087547;28;20453;-69
2024/03/30 02:07:20;;;;;;;3.27;0.93;;;;;;;13.01;100.00;101372.38;2086525;28;20197;-69
2024/03/30 02:08:22;;;;;;;3.60;1.07;;;;;;;12.43;100.00;101282.22;2088568;28;20439;-69
2024/03/30 02:09:23;;;;;;;2.43;1.10;;;;;;;13.05;100.00;101367.50;2087699;28;20433;-69
2024/03/30 02:10:24;;;;;;;2.00;0.97;;;;;;;13.05;100.00;101362.72;2087218;28;20419;-70
2024/03/30 02:11:25;;;;;;;3.13;1.00;;;;;;;13.08;100.00;101361.88;2086785;28;20719;-69
2024/03/30 02:12:26;;;;;;;1.90;1.10;;;;;;;13.03;100.00;101354.03;2087768;28;20214;-69
2024/03/30 02:13:28;;;;;;;1.17;0.90;;;;;;;13.08;100.00;101363.88;2088284;28;20191;-69
2024/03/30 02:14:30;;;;;;;2.43;1.10;;;;;;;12.49;100.00;101274.13;2088296;28;20246;-69
2024/03/30 02:15:31;;;;;;;4.50;1.37;;;;;;;12.32;100.00;101234.41;2087874;28;20560;-69
2024/03/30 02:16:32;;;;;;;3.63;1.67;;;;;;;13.10;100.00;101364.22;2087232;28;20455;-69
2024/03/30 02:17:32;;;;;;;6.80;1.60;;;;;;;13.07;100.00;101356.75;2090787;28;20193;-69
2024/03/30 02:18:33;;;;;;;6.27;1.57;;;;;;;13.03;100.00;101359.59;2093877;28;20446;-70
2024/03/30 02:19:42;;;;;;;3.93;1.10;;;;;;;12.29;100.00;101246.38;2087705;28;20261;-69
2024/03/30 02:20:42;;;;;;;3.33;1.47;;;;;;;13.06;100.00;101353.16;2087687;28;20565;-69
2024/03/30 02:21:43;;;;;;;3.07;1.77;;;;;;;13.04;100.00;101352.03;2087573;28;20428;-69
2024/03/30 02:22:53;;;;;;;5.00;1.60;;;;;;;13.11;100.00;101357.44;2086608;28;20292;-69
2024/03/30 02:23:54;;;;;;;4.17;1.27;;;;;;;13.15;100.00;101358.13;2090951;28;20639;-69
2024/03/30 02:24:54;;;;;;;3.57;1.67;;;;;;;13.16;100.00;101360.50;2088277;28;20470;-69
2024/03/30 02:25:59;;;;;;;2.83;1.20;;;;;;;13.17;100.00;101355.72;2086897;28;20194;-69
2024/03/30 02:26:59;;;;;;;4.10;1.20;;;;;;;13.16;100.00;101357.72;2086851;28;20563;-69
2024/03/30 02:28:00;;;;;;;2.80;1.33;;;;;;;13.15;100.00;101352.56;2087698;28;20450;-70
2024/03/30 02:29:04;;;;;;;3.03;0.83;;;;;;;13.19;100.00;101356.06;2087707;28;20663;-69
2024/03/30 02:30:09;;;;;;;5.33;1.20;;;;;;;13.13;100.00;101349.44;2088168;28;20199;-69
2024/03/30 02:31:09;;;;;;;4.67;0.80;;;;;;;13.18;100.00;101362.84;2087181;28;20429;-69
2024/03/30 02:32:10;;;;;;;3.53;0.70;;;;;;;13.15;100.00;101358.13;2088241;28;20871;-69
2024/03/30 02:33:11;;;;;;;3.33;0.90;;;;;;;13.13;100.00;101358.59;2087168;28;20572;-69
2024/03/30 02:34:12;;;;;;;2.90;0.80;;;;;;;13.07;100.00;101356.75;2088129;28;20624;-69
2024/03/30 02:35:12;;;;;;;2.83;1.17;;;;;;;12.67;100.00;101308.72;2087414;28;20192;-69
2024/03/30 02:36:15;;;;;;;4.07;1.00;;;;;;;12.97;100.00;101352.19;2087403;28;20192;-69
2024/03/30 02:37:16;;;;;;;1.53;0.90;;;;;;;12.92;100.00;101355.44;2089133;28;20203;-69
2024/03/30 02:38:17;;;;;;;2.97;0.97;;;;;;;12.10;100.00;101244.38;2087738;28;20530;-69
2024/03/30 02:39:18;;;;;;;2.53;1.10;;;;;;;12.88;100.00;101360.31;2087788;28;21030;-69
2024/03/30 02:40:19;;;;;;;1.33;0.90;;;;;;;12.27;100.00;101278.56;2092172;28;20200;-69
2024/03/30 02:41:20;;;;;;;3.37;1.03;;;;;;;12.78;100.00;101358.53;2086647;28;20216;-69
2024/03/30 02:42:20;;;;;;;3.30;0.80;;;;;;;12.72;100.00;101357.47;2092825;28;20427;-69
2024/03/30 02:43:21;;;;;;;4.07;1.07;;;;;;;12.72;100.00;101366.59;2088317;28;20256;-69
2024/03/30 02:44:21;;;;;;;7.30;1.07;;;;;;;12.71;100.00;101367.03;2087890;28;20230;-69
2024/03/30 02:45:22;;;;;;;2.50;0.87;;;;;;;12.64;100.00;101356.84;2089435;28;20211;-70
2024/03/30 02:46:22;;;;;;;3.07;1.07;;;;;;;12.62;100.00;101364.03;2091866;28;20271;-70
2024/03/30 02:47:23;;;;;;;3.47;1.20;;;;;;;12.31;100.00;101313.44;2089583;28;20199;-69
2024/03/30 02:48:23;;;;;;;4.53;1.33;;;;;;;12.19;100.00;101308.50;2087524;28;20249;-69
2024/03/30 02:49:24;;;;;;;3.40;1.07;;;;;;;12.50;100.00;101359.13;2087919;28;20198;-69
2024/03/30 02:50:24;;;;;;;3.57;1.13;;;;;;;12.45;100.00;101356.84;2088432;28;20260;-69
2024/03/30 02:51:24;;;;;;;2.30;0.60;;;;;;;12.39;100.00;101344.63;2086463;28;20200;-69
2024/03/30 02:52:25;;;;;;;2.87;0.63;;;;;;;12.11;100.00;101318.19;2087077;28;20187;-69
2024/03/30 02:53:25;;;;;;;3.13;1.00;;;;;;;12.19;100.00;101333.50;2087646;28;20192;-69
2024/03/30 02:54:26;;;;;;;2.67;0.70;;;;;;;12.33;100.00;101357.47;2087726;28;20219;-69
2024/03/30 02:55:27;;;;;;;1.70;0.70;;;;;;;11.91;100.00;101299.91;2087717;28;20742;-69
2024/03/30 02:56:27;;;;;;;1.77;0.80;;;;;;;12.09;100.00;101334.50;2086973;28;20587;-69
2024/03/30 02:57:28;;;;;;;4.27;0.90;;;;;;;11.69;100.00;101262.66;2086813;28;20242;-69
2024/03/30 02:58:29;;;;;;;4.03;0.80;;;;;;;12.29;100.00;101354.75;2088696;28;20422;-69
2024/03/30 02:59:29;;;;;;;2.00;0.57;;;;;;;12.30;100.00;101358.34;2087485;28;20283;-69
2024/03/30 03:00:30;;;;;;;2.20;0.90;;;;;;;11.87;100.00;101296.41;2086820;28;20204;-69
2024/03/30 03:01:30;;;;;;;1.63;0.60;;;;;;;12.23;100.00;101361.22;2087436;28;20208;-69
2024/03/30 03:02:31;;;;;;;0.97;0.60;;;;;;;12.13;100.00;101357.44;2086376;28;20224;-69
2024/03/30 03:03:31;;;;;;;3.07;1.57;;;;;;;12.11;100.00;101361.84;2089057;28;20263;-69
2024/03/30 03:04:32;;;;;;;2.43;0.90;;;;;;;12.02;100.00;101354.09;2093812;28;20196;-69
2024/03/30 03:05:32;;;;;;;2.43;1.20;;;;;;;11.79;100.00;101329.09;2086830;28;20205;-69
2024/03/30 03:06:33;;;;;;;1.17;0.83;;;;;;;11.98;100.00;101364.47;2087862;28;20198;-69
2024/03/30 03:07:33;;;;;;;1.40;0.83;;;;;;;11.10;100.00;101226.38;2086906;28;20276;-69
2024/03/30 03:08:34;;;;;;;3.73;1.03;;;;;;;12.01;100.00;101362.84;2087564;28;20189;-69
2024/03/30 03:09:35;;;;;;;3.17;1.10;;;;;;;11.72;100.00;101320.91;2087914;28;20193;-69
2024/03/30 03:10:35;;;;;;;2.17;1.17;;;;;;;11.19;100.00;101248.81;2091189;28;20196;-69
2024/03/30 03:11:36;;;;;;;2.50;0.77;;;;;;;11.27;100.00;101252.28;2086174;28;20543;-69
2024/03/30 03:12:36;;;;;;;4.30;1.10;;;;;;;11.45;100.00;101295.16;2091534;28;20426;-69
2024/03/30 03:13:37;;;;;;;3.47;0.83;;;;;;;11.96;100.00;101363.31;2086981;28;20254;-69
2024/03/30 03:14:38;;;;;;;1.73;0.90;;;;;;;11.97;100.00;101368.47;2088436;28;20593;-69
2024/03/30 03:15:38;;;;;;;1.60;0.70;;;;;;;11.95;100.00;101368.06;2086524;28;20192;-69
2024/03/30 03:16:39;;;;;;;1.87;0.70;;;;;;;11.02;100.00;101226.91;2087158;28;20192;-69
2024/03/30 03:17:39;;;;;;;1.97;1.00;;;;;;;11.93;100.00;101364.94;2086791;28;20225;-69
2024/03/30 03:18:40;;;;;;;2.33;0.47;;;;;;;11.90;100.00;101368.59;2087826;28;20196;-69
2024/03/30 03:19:41;;;;;;;2.80;1.10;;;;;;;11.08;100.00;101245.44;2087471;28;20219;-69
2024/03/30 03:20:42;;;;;;;1.37;0.73;;;;;;;11.91;100.00;101374.91;2087019;28;20427;-69
2024/03/30 03:21:42;;;;;;;0.70;0.50;;;;;;;11.78;100.00;101357.31;2086185;28;20211;-69
2024/03/30 03:22:42;;;;;;;5.87;0.73;;;;;;;11.83;100.00;101367.94;2087170;28;20274;-69
2024/03/30 03:23:43;;;;;;;0.80;0.60;;;;;;;11.80;100.00;101363.22;2087213;28;20196;-69
2024/03/30 03:24:44;;;;;;;5.03;1.60;;;;;;;11.00;100.00;101251.50;2087482;28;20203;-69
2024/03/30 03:25:45;;;;;;;1.87;1.00;;;;;;;11.76;100.00;101363.28;2087356;28;20200;-69
2024/03/30 03:26:45;;;;;;;4.07;0.70;;;;;;;10.98;100.00;101248.38;2086737;28;20524;-69
2024/03/30 03:27:46;;;;;;;2.27;1.00;;;;;;;11.72;100.00;101359.75;2086870;28;20200;-69
2024/03/30 03:28:46;;;;;;;1.33;0.60;;;;;;;11.71;100.00;101357.41;2092527;28;20187;-69
2024/03/30 03:29:47;;;;;;;1.43;0.80;;;;;;;11.64;100.00;101361.06;2086334;28;20184;-69
2024/03/30 03:30:47;;;;;;;1.47;0.70;;;;;;;11.40;100.00;101320.63;2086984;28;20183;-69
2024/03/30 03:31:48;;;;;;;2.50;1.03;;;;;;;11.21;100.00;101306.66;2087225;28;20231;-69
2024/03/30 03:32:48;;;;;;;7.07;1.10;;;;;;;11.58;100.00;101361.97;2086673;28;20662;-69
2024/03/30 03:33:49;;;;;;;2.13;1.00;;;;;;;11.56;100.00;101367.94;2093052;28;20263;-69
2024/03/30 03:34:50;;;;;;;3.63;0.70;;;;;;;11.55;100.00;101360.81;2089739;28;20214;-69
2024/03/30 03:35:50;;;;;;;2.30;0.97;;;;;;;11.56;100.00;101361.59;2086883;28;20448;-69
2024/03/30 03:36:51;;;;;;;4.20;0.83;;;;;;;11.57;100.00;101363.16;2085815;28;20208;-69
2024/03/30 03:37:52;;;;;;;2.60;1.07;;;;;;;11.56;100.00;101364.38;2087278;28;20302;-69
2024/03/30 03:38:52;;;;;;;2.40;0.87;;;;;;;11.60;100.00;101367.91;2092485;28;20578;-69
2024/03/30 03:39:53;;;;;;;5.53;1.20;;;;;;;11.61;100.00;101370.28;2087641;28;20242;-69
2024/03/30 03:40:54;;;;;;;0.90;0.70;;;;;;;11.59;100.00;101367.09;2087042;28;20511;-69
2024/03/30 03:41:55;;;;;;;1.93;0.67;;;;;;;11.01;100.00;101278.81;2088746;28;20190;-69
2024/03/30 03:42:55;;;;;;;1.50;0.80;;;;;;;10.83;100.00;101258.91;2085707;28;20442;-69
2024/03/30 03:43:56;;;;;;;2.43;0.70;;;;;;;11.26;100.00;101326.38;2086308;28;20217;-69
2024/03/30 03:44:57;;;;;;;2.73;1.10;;;;;;;11.05;100.00;101304.53;2087031;28;20492;-69
2024/03/30 03:45:58;;;;;;;1.47;0.80;;;;;;;10.97;100.00;101293.97;2091478;28;20304;-69
2024/03/30 03:46:58;;;;;;;2.93;0.90;;;;;;;11.50;100.00;101366.84;2086428;28;20459;-69
2024/03/30 03:47:59;;;;;;;2.50;1.07;;;;;;;10.88;100.00;101274.28;2087920;28;20581;-69
2024/03/30 03:48:59;;;;;;;2.83;1.00;;;;;;;11.42;100.00;101370.16;2087214;28;20240;-69
2024/03/30 03:50:00;;;;;;;1.90;0.80;;;;;;;11.40;100.00;101370.56;2086732;28;20202;-69
2024/03/30 03:51:01;;;;;;;2.67;1.43;;;;;;;11.40;100.00;101373.34;2085719;28;20201;-69
2024/03/30 03:52:02;;;;;;;3.67;0.60;;;;;;;11.45;100.00;101369.31;2086297;28;20507;-69
2024/03/30 03:53:03;;;;;;;4.47;1.03;;;;;;;11.45;100.00;101363.75;2085608;28;20536;-69
2024/03/30 03:54:03;;;;;;;4.20;1.17;;;;;;;11.45;100.00;101366.53;2087312;28;20235;-69
2024/03/30 03:55:04;;;;;;;4.17;1.20;;;;;;;10.79;100.00;101271.22;2087025;28;20192;-69
2024/03/30 03:56:05;;;;;;;2.30;1.13;;;;;;;11.39;100.00;101369.00;2087262;28;20207;-69
2024/03/30 03:57:05;;;;;;;4.07;1.20;;;;;;;11.29;100.00;101358.84;2086660;28;20195;-69
2024/03/30 03:58:06;;;;;;;3.40;1.27;;;;;;;11.38;100.00;101372.97;2087255;28;20215;-69
2024/03/30 03:59:06;;;;;;;3.27;1.20;;;;;;;11.38;100.00;101370.19;2086480;28;20626;-69
2024/03/30 04:00:07;;;;;;;1.33;0.83;;;;;;;11.39;100.00;101382.88;2089621;28;20658;-69
2024/03/30 04:01:08;;;;;;;1.77;0.90;;;;;;;11.37;100.00;101374.19;2090437;28;20204;-69
2024/03/30 04:02:08;;;;;;;2.87;0.83;;;;;;;11.21;100.00;101376.00;2087016;28;20995;-69
2024/03/30 04:03:09;;;;;;;1.47;0.60;;;;;;;11.32;100.00;101376.66;2086971;28;20246;-69
2024/03/30 04:04:09;;;;;;;2.40;0.90;;;;;;;11.20;100.00;101371.66;2094253;28;20257;-69
2024/03/30 04:05:10;;;;;;;3.53;0.90;;;;;;;11.31;100.00;101381.41;2086989;28;20196;-69
2024/03/30 04:06:11;;;;;;;6.10;1.20;;;;;;;11.27;100.00;101377.13;2091411;28;20234;-69
2024/03/30 04:07:12;;;;;;;3.33;0.90;;;;;;;11.21;100.00;101371.25;2091834;28;20618;-69
2024/03/30 04:08:12;;;;;;;1.80;0.60;;;;;;;11.28;100.00;101375.91;2089309;28;20517;-69
2024/03/30 04:09:13;;;;;;;1.23;0.90;;;;;;;10.31;100.00;101237.47;2090027;28;20206;-69
2024/03/30 04:10:15;;;;;;;0.70;0.50;;;;;;;11.26;100.00;101379.09;2090472;28;20680;-69
2024/03/30 04:11:15;;;;;;;2.77;0.80;;;;;;;10.49;100.00;101263.75;2086189;28;20535;-69
2024/03/30 04:12:16;;;;;;;3.43;1.23;;;;;;;11.30;100.00;101392.91;2092969;28;20700;-69
2024/03/30 04:13:17;;;;;;;1.77;0.80;;;;;;;11.28;100.00;101398.88;2086711;28;20196;-69
2024/03/30 04:14:17;;;;;;;6.73;1.47;;;;;;;10.44;100.00;101272.50;2086671;28;20200;-69
2024/03/30 04:15:18;;;;;;;2.67;0.83;;;;;;;11.30;100.00;101404.03;2086159;28;20534;-69
2024/03/30 04:16:18;;;;;;;4.57;1.17;;;;;;;11.27;100.00;101399.31;2086246;28;20192;-69
2024/03/30 04:17:19;;;;;;;2.53;0.60;;;;;;;10.86;100.00;101338.47;2088621;28;20241;-69
2024/03/30 04:18:20;;;;;;;3.80;0.90;;;;;;;11.17;100.00;101397.50;2087105;28;20230;-69
2024/03/30 04:19:20;;;;;;;3.53;0.90;;;;;;;11.02;100.00;101371.13;2087171;28;20193;-69
2024/03/30 04:20:21;;;;;;;2.53;0.70;;;;;;;10.83;100.00;101341.28;2087428;28;20203;-69
2024/03/30 04:21:21;;;;;;;2.50;1.13;;;;;;;11.28;100.00;101412.75;2086636;28;20303;-69
2024/03/30 04:22:21;;;;;;;1.43;0.80;;;;;;;11.27;100.00;101415.97;2085896;28;20698;-69
2024/03/30 04:23:22;;;;;;;3.47;1.00;;;;;;;10.44;100.00;101294.69;2087178;28;20978;-69
2024/03/30 04:24:23;;;;;;;2.13;0.70;;;;;;;11.22;100.00;101416.44;2089024;28;20228;-69
2024/03/30 04:25:23;;;;;;;5.93;1.13;;;;;;;10.94;100.00;101391.84;2088421;28;20187;-69
2024/03/30 04:26:26;;;;;;;3.60;1.17;;;;;;;11.09;100.00;101418.19;2090692;28;20659;-69
2024/03/30 04:27:27;;;;;;;3.27;1.13;;;;;;;11.00;100.00;101420.69;2085733;28;20255;-69
2024/03/30 04:28:27;;;;;;;1.83;1.00;;;;;;;10.95;100.00;101423.91;2086830;28;20434;-69
2024/03/30 04:29:28;;;;;;;4.00;0.83;;;;;;;10.95;100.00;101424.72;2095935;28;20266;-69
2024/03/30 04:30:28;;;;;;;2.43;0.80;;;;;;;10.92;100.00;101417.22;2086226;28;20279;-69
2024/03/30 04:31:29;;;;;;;3.93;1.80;;;;;;;10.73;100.00;101390.13;2085701;28;20195;-69
2024/03/30 04:32:29;;;;;;;4.30;1.40;;;;;;;10.50;100.00;101364.28;2086467;28;20198;-69
2024/03/30 04:33:30;;;;;;;2.90;1.43;;;;;;;10.86;100.00;101418.09;2086719;28;20267;-69
2024/03/30 04:34:31;;;;;;;3.10;1.43;;;;;;;10.87;100.00;101419.66;2086917;28;20323;-69
2024/03/30 04:35:31;;;;;;;2.40;1.10;;;;;;;9.98;100.00;101283.31;2086326;28;20530;-69
2024/03/30 04:36:32;;;;;;;2.77;1.30;;;;;;;10.90;100.00;101419.63;2088531;28;20183;-69
2024/03/30 04:37:32;;;;;;;5.83;1.80;;;;;;;10.91;100.00;101423.19;2086757;28;20184;-69
2024/03/30 04:38:34;;;;;;;6.03;1.63;;;;;;;10.90;100.00;101427.16;2087808;28;20188;-69
2024/03/30 04:39:35;;;;;;;3.70;1.10;;;;;;;10.91;100.00;101421.19;2087385;28;20187;-69